createdAt,value
2023-04-18T00:01:03.132Z,33.21
2023-04-18T00:03:40.572Z,33.54
2023-04-18T00:06:22.620Z,33.20
2023-04-18T00:08:53.439Z,33.40
2023-04-18T00:11:22.260Z,33.38
2023-04-18T00:13:55.385Z,33.37
2023-04-18T00:16:33.143Z,33.33
2023-04-18T00:19:11.177Z,33.38
2023-04-18T00:21:49.649Z,33.26
2023-04-18T00:24:28.567Z,33.21
2023-04-18T00:27:12.210Z,33.34
2023-04-18T00:29:48.402Z,33.08
2023-04-18T00:32:28.476Z,33.33
2023-04-18T00:35:08.104Z,33.74
2023-04-18T00:37:41.833Z,33.48
2023-04-18T00:40:19.205Z,33.30
2023-04-18T00:42:56.065Z,33.13
2023-04-18T00:45:32.642Z,33.30
2023-04-18T00:48:17.405Z,33.54
2023-04-18T00:51:00.447Z,33.57
2023-04-18T00:53:35.026Z,33.39
2023-04-18T00:56:14.321Z,33.45
2023-04-18T00:59:00.411Z,33.47
2023-04-18T01:01:33.710Z,33.49
2023-04-18T01:04:09.129Z,33.03
2023-04-18T01:06:46.107Z,33.24
2023-04-18T01:09:28.406Z,33.39
2023-04-18T01:12:04.391Z,33.21
2023-04-18T01:14:42.735Z,33.14
2023-04-18T01:17:34.602Z,33.06
2023-04-18T01:20:08.636Z,32.93
2023-04-18T01:22:44.377Z,33.01
2023-04-18T01:25:12.300Z,33.12
2023-04-18T01:27:54.564Z,32.94
2023-04-18T01:30:41.523Z,33.41
2023-04-18T01:33:20.181Z,33.13
2023-04-18T01:35:54.358Z,33.18
2023-04-18T01:38:30.605Z,33.49
2023-04-18T01:41:06.010Z,33.43
2023-04-18T01:43:47.491Z,33.29
2023-04-18T01:46:22.217Z,33.48
2023-04-18T01:49:05.721Z,33.44
2023-04-18T01:51:44.466Z,33.06
2023-04-18T01:54:19.507Z,33.48
2023-04-18T01:56:57.286Z,33.28
2023-04-18T01:59:29.825Z,33.31
2023-04-18T02:02:13.837Z,33.51
2023-04-18T02:04:52.591Z,33.17
2023-04-18T02:07:31.254Z,33.32
2023-04-18T02:10:07.574Z,33.27
2023-04-18T02:12:45.814Z,33.49
2023-04-18T02:15:23.952Z,33.46
2023-04-18T02:18:00.580Z,33.45
2023-04-18T02:20:33.738Z,33.59
2023-04-18T02:23:09.559Z,33.31
2023-04-18T02:25:46.039Z,33.36
2023-04-18T02:28:19.121Z,33.56
2023-04-18T02:30:50.703Z,33.64
2023-04-18T02:33:30.784Z,33.61
2023-04-18T02:36:04.055Z,33.39
2023-04-18T02:38:38.976Z,33.61
2023-04-18T02:41:23.027Z,33.32
2023-04-18T02:43:59.918Z,33.45
2023-04-18T02:46:35.662Z,33.44
2023-04-18T02:49:10.228Z,33.56
2023-04-18T02:51:49.010Z,33.40
2023-04-18T02:54:28.549Z,33.60
2023-04-18T02:57:23.210Z,33.38
2023-04-18T03:00:10.415Z,33.65
2023-04-18T03:03:08.031Z,33.60
2023-04-18T03:05:48.888Z,33.55
2023-04-18T03:08:24.150Z,33.24
2023-04-18T03:11:00.218Z,33.30
2023-04-18T03:13:42.966Z,33.49
2023-04-18T03:16:19.328Z,33.33
2023-04-18T03:18:52.987Z,33.42
2023-04-18T03:21:31.020Z,33.49
2023-04-18T03:24:11.961Z,33.56
2023-04-18T03:26:41.251Z,33.51
2023-04-18T03:29:20.609Z,33.38
2023-04-18T03:31:59.873Z,33.55
2023-04-18T03:34:36.483Z,33.35
2023-04-18T03:37:17.544Z,33.44
2023-04-18T03:39:54.713Z,33.50
2023-04-18T03:42:32.438Z,33.56
2023-04-18T03:45:13.780Z,33.51
2023-04-18T03:47:49.330Z,33.25
2023-04-18T03:50:26.221Z,33.45
2023-04-18T03:53:08.975Z,33.44
2023-04-18T03:55:50.580Z,33.22
2023-04-18T03:58:41.486Z,33.52
2023-04-18T04:01:10.061Z,33.34
2023-04-18T04:03:46.042Z,33.36
2023-04-18T04:06:19.505Z,33.42
2023-04-18T04:08:57.244Z,33.52
2023-04-18T04:11:30.413Z,33.47
2023-04-18T04:14:06.997Z,33.20
2023-04-18T04:16:46.097Z,33.21
2023-04-18T04:19:23.086Z,33.60
2023-04-18T04:22:01.906Z,33.31
2023-04-18T04:24:39.598Z,33.56
2023-04-18T04:27:22.831Z,33.31
2023-04-18T04:29:58.256Z,33.40
2023-04-18T04:32:33.927Z,33.52
2023-04-18T04:35:04.942Z,33.54
2023-04-18T04:37:46.809Z,33.25
2023-04-18T04:40:41.528Z,33.31
2023-04-18T04:43:19.338Z,33.41
2023-04-18T04:45:58.022Z,33.27
2023-04-18T04:48:25.947Z,33.26
2023-04-18T04:50:59.684Z,33.39
2023-04-18T04:53:40.946Z,33.25
2023-04-18T04:56:17.840Z,33.49
2023-04-18T04:58:54.258Z,33.46
2023-04-18T05:01:30.646Z,33.42
2023-04-18T05:04:02.417Z,33.33
2023-04-18T05:06:40.255Z,33.39
2023-04-18T05:09:16.682Z,33.69
2023-04-18T05:11:51.850Z,33.44
2023-04-18T05:14:23.310Z,33.46
2023-04-18T05:16:58.657Z,33.55
2023-04-18T05:19:43.369Z,33.31
2023-04-18T05:22:29.800Z,33.36
2023-04-18T05:25:03.049Z,33.48
2023-04-18T05:27:45.662Z,33.41
2023-04-18T05:30:16.240Z,33.73
2023-04-18T05:32:49.903Z,33.34
2023-04-18T05:35:21.098Z,33.22
2023-04-18T05:37:54.093Z,33.47
2023-04-18T05:40:30.319Z,33.44
2023-04-18T05:43:03.558Z,33.47
2023-04-18T05:45:37.508Z,33.56
2023-04-18T05:48:05.902Z,33.75
2023-04-18T05:50:39.451Z,33.66
2023-04-18T05:53:10.138Z,32.99
2023-04-18T05:55:41.135Z,33.32
2023-04-18T05:58:12.059Z,33.43
2023-04-18T06:00:43.189Z,33.54
2023-04-18T06:03:11.567Z,33.21
2023-04-18T06:05:43.165Z,33.65
2023-04-18T06:08:13.810Z,33.38
2023-04-18T06:10:41.424Z,33.07
2023-04-18T06:13:15.039Z,33.62
2023-04-18T06:15:48.467Z,33.01
2023-04-18T06:18:21.682Z,33.12
2023-04-18T06:20:51.753Z,32.86
2023-04-18T06:23:22.857Z,33.15
2023-04-18T06:25:56.777Z,32.68
2023-04-18T06:28:32.802Z,32.57
2023-04-18T06:31:04.884Z,32.38
2023-04-18T06:33:37.836Z,32.14
2023-04-18T06:36:11.403Z,32.19
2023-04-18T06:38:47.660Z,31.89
2023-04-18T06:41:21.471Z,31.84
2023-04-18T06:44:04.220Z,31.69
2023-04-18T06:46:37.942Z,31.98
2023-04-18T06:49:11.138Z,32.01
2023-04-18T06:51:40.212Z,32.05
2023-04-18T06:54:14.667Z,32.13
2023-04-18T06:56:48.794Z,32.56
2023-04-18T06:59:17.693Z,32.48
2023-04-18T07:01:48.235Z,32.25
2023-04-18T07:04:16.435Z,32.51
2023-04-18T07:06:45.825Z,32.47
2023-04-18T07:09:23.745Z,32.42
2023-04-18T07:12:03.295Z,32.95
2023-04-18T07:14:36.814Z,32.93
2023-04-18T07:17:14.117Z,32.95
2023-04-18T07:19:42.785Z,33.37
2023-04-18T07:22:14.639Z,33.26
2023-04-18T07:24:54.627Z,33.64
2023-04-18T07:27:27.930Z,33.72
2023-04-18T07:29:58.620Z,33.25
2023-04-18T07:32:44.349Z,33.29
2023-04-18T07:35:18.058Z,33.52
2023-04-18T07:37:50.984Z,33.48
2023-04-18T07:40:22.680Z,33.57
2023-04-18T07:42:53.567Z,33.49
2023-04-18T07:45:38.467Z,33.53
2023-04-18T07:48:11.485Z,33.62
2023-04-18T07:50:44.998Z,33.66
2023-04-18T07:53:17.218Z,33.78
2023-04-18T07:55:55.282Z,34.01
2023-04-18T07:58:24.153Z,33.50
2023-04-18T08:01:04.098Z,32.83
2023-04-18T08:03:40.500Z,33.02
2023-04-18T08:06:13.446Z,32.65
2023-04-18T08:08:50.464Z,32.52
2023-04-18T08:11:30.098Z,31.52
2023-04-18T08:14:11.957Z,32.03
2023-04-18T08:16:45.777Z,32.69
2023-04-18T08:19:24.856Z,32.60
2023-04-18T08:22:10.861Z,31.93
2023-04-18T08:24:39.469Z,32.17
2023-04-18T08:27:11.138Z,31.93
2023-04-18T08:29:42.364Z,31.81
2023-04-18T08:32:16.394Z,31.73
2023-04-18T08:34:47.691Z,31.94
2023-04-18T08:37:15.437Z,32.18
2023-04-18T08:39:45.635Z,31.84
2023-04-18T08:42:19.621Z,31.80
2023-04-18T08:44:52.386Z,31.76
2023-04-18T08:47:21.108Z,32.07
2023-04-18T08:49:49.077Z,32.08
2023-04-18T08:52:17.384Z,31.35
2023-04-18T08:54:49.493Z,30.97
2023-04-18T08:57:18.441Z,31.54
2023-04-18T08:59:50.866Z,31.26
2023-04-18T09:02:28.689Z,31.87
2023-04-18T09:04:59.742Z,31.99
2023-04-18T09:07:33.688Z,31.93
2023-04-18T09:10:04.864Z,32.20
2023-04-18T09:12:50.720Z,32.27
2023-04-18T09:15:23.814Z,32.03
2023-04-18T09:17:56.555Z,32.41
2023-04-18T09:20:35.329Z,31.50
2023-04-18T09:23:11.371Z,32.17
2023-04-18T09:25:45.282Z,32.33
2023-04-18T09:28:23.370Z,32.17
2023-04-18T09:30:54.604Z,32.40
2023-04-18T09:33:33.115Z,32.21
2023-04-18T09:36:32.513Z,32.75
2023-04-18T09:39:10.200Z,31.94
2023-04-18T09:41:44.130Z,31.49
2023-04-18T09:44:20.624Z,31.81
2023-04-18T09:46:54.514Z,32.02
2023-04-18T09:49:28.398Z,32.12
2023-04-18T09:52:01.963Z,31.41
2023-04-18T09:54:41.163Z,32.01
2023-04-18T09:57:17.136Z,31.97
2023-04-18T10:00:17.535Z,32.10
2023-04-18T10:03:06.078Z,32.20
2023-04-18T10:05:40.632Z,31.64
2023-04-18T10:08:16.635Z,31.57
2023-04-18T10:10:47.282Z,31.78
2023-04-18T10:13:19.084Z,31.50
2023-04-18T10:15:56.311Z,31.18
2023-04-18T10:18:25.654Z,31.85
2023-04-18T10:21:05.821Z,31.39
2023-04-18T10:23:45.942Z,31.47
2023-04-18T10:26:19.251Z,32.05
2023-04-18T10:29:01.006Z,31.40
2023-04-18T10:31:29.822Z,31.31
2023-04-18T10:36:31.297Z,31.39
2023-04-18T10:39:22.618Z,31.54
2023-04-18T10:41:51.638Z,31.52
2023-04-18T10:44:23.077Z,30.90
2023-04-18T10:47:03.975Z,30.75
2023-04-18T10:49:34.748Z,31.27
2023-04-18T10:52:08.793Z,31.38
2023-04-18T10:54:57.707Z,31.37
2023-04-18T10:57:41.552Z,31.45
2023-04-18T11:00:11.917Z,31.61
2023-04-18T11:02:53.948Z,31.42
2023-04-18T11:05:25.600Z,31.32
2023-04-18T11:07:59.436Z,31.08
2023-04-18T11:10:30.732Z,31.51
2023-04-18T11:13:04.805Z,31.07
2023-04-18T11:15:36.820Z,31.19
2023-04-18T11:18:10.351Z,31.40
2023-04-18T11:20:41.745Z,31.46
2023-04-18T11:23:27.231Z,31.48
2023-04-18T11:26:01.906Z,31.69
2023-04-18T11:28:35.166Z,31.50
2023-04-18T11:31:11.372Z,31.37
2023-04-18T11:33:47.443Z,31.29
2023-04-18T11:36:19.360Z,31.17
2023-04-18T11:38:50.651Z,31.25
2023-04-18T11:41:18.762Z,31.22
2023-04-18T11:43:50.412Z,31.38
2023-04-18T11:46:18.529Z,31.41
2023-04-18T11:48:50.435Z,30.97
2023-04-18T11:51:39.985Z,31.62
2023-04-18T11:54:39.691Z,31.37
2023-04-18T11:57:20.655Z,31.44
2023-04-18T12:00:13.195Z,30.93
2023-04-18T12:02:54.452Z,29.18
2023-04-18T12:05:31.982Z,26.49
2023-04-18T12:08:13.697Z,26.58
2023-04-18T12:10:50.757Z,26.92
2023-04-18T12:13:27.082Z,26.50
2023-04-18T12:15:55.641Z,26.00
2023-04-18T12:18:26.575Z,26.59
2023-04-18T12:21:02.006Z,25.33
2023-04-18T12:23:37.282Z,25.06
2023-04-18T12:26:22.951Z,25.54
2023-04-18T12:28:57.057Z,25.44
2023-04-18T12:31:28.958Z,24.95
2023-04-18T12:34:14.593Z,24.85
2023-04-18T12:36:52.814Z,25.05
2023-04-18T12:39:28.274Z,25.06
2023-04-18T12:41:57.893Z,24.73
2023-04-18T12:44:29.486Z,25.67
2023-04-18T12:47:02.256Z,25.60
2023-04-18T12:49:34.265Z,25.82
2023-04-18T12:52:07.554Z,26.05
2023-04-18T12:54:41.312Z,26.16
2023-04-18T12:57:16.024Z,26.15
2023-04-18T12:59:46.893Z,26.02
2023-04-18T13:02:20.439Z,25.85
2023-04-18T13:04:53.033Z,26.01
2023-04-18T13:07:24.213Z,26.01
2023-04-18T13:09:55.243Z,26.42
2023-04-18T13:12:31.352Z,26.53
2023-04-18T13:15:15.714Z,26.71
2023-04-18T13:17:47.423Z,26.94
2023-04-18T13:20:17.701Z,27.08
2023-04-18T13:22:57.348Z,27.14
2023-04-18T13:25:34.083Z,27.39
2023-04-18T13:28:07.439Z,27.77
2023-04-18T13:30:43.074Z,27.38
2023-04-18T13:33:23.299Z,27.45
2023-04-18T13:35:51.407Z,27.69
2023-04-18T13:38:31.083Z,28.01
2023-04-18T13:41:11.542Z,27.88
2023-04-18T13:43:43.724Z,27.99
2023-04-18T13:46:14.922Z,28.29
2023-04-18T13:48:47.971Z,28.33
2023-04-18T13:51:20.425Z,28.68
2023-04-18T13:53:54.775Z,28.18
2023-04-18T13:56:28.366Z,28.53
2023-04-18T13:58:59.941Z,28.59
2023-04-18T14:01:28.141Z,28.34
2023-04-18T14:03:56.535Z,28.65
2023-04-18T14:06:38.382Z,28.38
2023-04-18T14:09:09.471Z,28.14
2023-04-18T14:11:47.825Z,27.80
2023-04-18T14:14:18.562Z,27.56
2023-04-18T14:16:47.715Z,28.42
2023-04-18T14:19:23.974Z,27.62
2023-04-18T14:21:55.464Z,27.78
2023-04-18T14:24:28.099Z,27.47
2023-04-18T14:27:03.530Z,27.71
2023-04-18T14:29:31.762Z,27.92
2023-04-18T14:31:59.820Z,27.96
2023-04-18T14:34:38.898Z,27.55
2023-04-18T14:37:12.410Z,28.13
2023-04-18T14:39:54.557Z,27.63
2023-04-18T14:42:30.111Z,27.52
2023-04-18T14:45:00.373Z,27.68
2023-04-18T14:47:31.872Z,27.57
2023-04-18T14:50:02.727Z,27.18
2023-04-18T14:52:31.410Z,27.87
2023-04-18T14:55:00.539Z,27.38
2023-04-18T14:57:31.374Z,27.46
2023-04-18T15:00:07.501Z,27.52
2023-04-18T15:02:36.395Z,27.23
2023-04-18T15:05:04.999Z,27.24
2023-04-18T15:07:33.949Z,27.33
2023-04-18T15:10:05.757Z,26.74
2023-04-18T15:12:37.691Z,26.84
2023-04-18T15:15:06.865Z,27.52
2023-04-18T15:17:40.423Z,27.08
2023-04-18T15:20:16.584Z,27.08
2023-04-18T15:22:47.592Z,27.22
2023-04-18T15:25:19.889Z,27.38
2023-04-18T15:27:51.564Z,27.44
2023-04-18T15:30:22.865Z,27.19
2023-04-18T15:32:56.720Z,27.17
2023-04-18T15:35:25.809Z,27.26
2023-04-18T15:37:54.142Z,26.83
2023-04-18T15:40:25.151Z,27.21
2023-04-18T15:42:54.505Z,27.30
2023-04-18T15:45:25.923Z,26.41
2023-04-18T15:47:56.542Z,26.75
2023-04-18T15:50:30.827Z,26.37
2023-04-18T15:53:07.795Z,26.40
2023-04-18T15:55:38.374Z,26.46
2023-04-18T15:58:06.701Z,26.51
2023-04-18T16:00:41.308Z,26.49
2023-04-18T16:03:23.453Z,26.09
2023-04-18T16:05:56.941Z,26.44
2023-04-18T16:08:31.967Z,26.22
2023-04-18T16:11:09.078Z,26.78
2023-04-18T16:13:38.313Z,26.53
2023-04-18T16:16:09.548Z,26.51
2023-04-18T16:18:38.321Z,26.41
2023-04-18T16:21:06.258Z,26.48
2023-04-18T16:23:37.017Z,26.32
2023-04-18T16:26:08.632Z,26.77
2023-04-18T16:28:42.276Z,26.93
2023-04-18T16:31:16.632Z,27.23
2023-04-18T16:33:51.756Z,26.96
2023-04-18T16:36:28.133Z,27.56
2023-04-18T16:39:01.165Z,27.11
2023-04-18T16:41:39.882Z,27.69
2023-04-18T16:44:10.669Z,27.86
2023-04-18T16:46:43.894Z,27.63
2023-04-18T16:49:12.721Z,28.11
2023-04-18T16:51:46.793Z,27.88
2023-04-18T16:54:17.938Z,27.97
2023-04-18T16:56:53.627Z,27.92
2023-04-18T16:59:26.095Z,28.07
2023-04-18T17:02:01.560Z,27.99
2023-04-18T17:04:36.666Z,28.21
2023-04-18T17:07:08.167Z,28.47
2023-04-18T17:09:38.633Z,28.61
2023-04-18T17:12:17.177Z,28.56
2023-04-18T17:14:58.679Z,28.77
2023-04-18T17:17:38.573Z,28.86
2023-04-18T17:20:12.523Z,28.55
2023-04-18T17:22:46.747Z,28.87
2023-04-18T17:25:26.012Z,29.30
2023-04-18T17:28:05.596Z,29.05
2023-04-18T17:30:42.815Z,29.07
2023-04-18T17:33:23.798Z,29.37
2023-04-18T17:35:57.325Z,28.98
2023-04-18T17:38:30.774Z,29.40
2023-04-18T17:41:11.285Z,29.30
2023-04-18T17:43:44.896Z,29.45
2023-04-18T17:46:18.797Z,29.42
2023-04-18T17:48:59.846Z,29.49
2023-04-18T17:51:35.079Z,29.26
2023-04-18T17:54:11.211Z,29.46
2023-04-18T17:56:53.433Z,29.36
2023-04-18T17:59:29.621Z,29.52
2023-04-18T18:02:04.707Z,29.78
2023-04-18T18:04:42.671Z,29.74
2023-04-18T18:07:16.204Z,29.61
2023-04-18T18:09:52.685Z,29.87
2023-04-18T18:12:30.755Z,29.99
2023-04-18T18:15:07.811Z,29.95
2023-04-18T18:17:42.957Z,29.80
2023-04-18T18:20:17.705Z,29.79
2023-04-18T18:22:51.575Z,29.75
2023-04-18T18:25:36.411Z,29.85
2023-04-18T18:28:13.996Z,30.08
2023-04-18T18:30:50.023Z,30.00
2023-04-18T18:33:28.842Z,30.01
2023-04-18T18:36:09.878Z,30.46
2023-04-18T18:38:53.212Z,30.10
2023-04-18T18:41:34.086Z,30.20
2023-04-18T18:44:11.684Z,30.25
2023-04-18T18:46:43.226Z,30.29
2023-04-18T18:49:23.655Z,30.38
2023-04-18T18:51:57.021Z,30.29
2023-04-18T18:54:37.348Z,30.23
2023-04-18T18:57:10.661Z,30.16
2023-04-18T18:59:50.100Z,30.56
2023-04-18T19:02:32.023Z,30.30
2023-04-18T19:05:09.329Z,30.42
2023-04-18T19:07:50.948Z,30.41
2023-04-18T19:10:22.007Z,30.25
2023-04-18T19:13:03.479Z,30.49
2023-04-18T19:15:41.797Z,30.74
2023-04-18T19:18:12.803Z,30.74
2023-04-18T19:20:50.365Z,30.65
2023-04-18T19:23:31.003Z,30.73
2023-04-18T19:26:04.270Z,30.61
2023-04-18T19:28:45.878Z,30.75
2023-04-18T19:31:23.818Z,30.79
2023-04-18T19:33:58.451Z,30.70
2023-04-18T19:36:37.062Z,30.96
2023-04-18T19:39:09.769Z,31.01
2023-04-18T19:41:46.566Z,31.06
2023-04-18T19:44:21.035Z,30.66
2023-04-18T19:46:58.510Z,30.76
2023-04-18T19:49:35.032Z,30.90
2023-04-18T19:52:06.423Z,30.78
2023-04-18T19:54:47.594Z,30.73
2023-04-18T19:57:29.417Z,31.01
2023-04-18T20:00:03.752Z,30.92
2023-04-18T20:02:51.830Z,30.94
2023-04-18T20:05:31.226Z,31.38
2023-04-18T20:08:04.158Z,31.09
2023-04-18T20:10:36.642Z,31.21
2023-04-18T20:13:16.626Z,31.12
2023-04-18T20:15:50.527Z,30.92
2023-04-18T20:18:29.494Z,30.90
2023-04-18T20:21:09.815Z,30.98
2023-04-18T20:23:46.805Z,31.26
2023-04-18T20:26:20.772Z,31.21
2023-04-18T20:28:57.985Z,31.10
2023-04-18T20:31:41.782Z,31.28
2023-04-18T20:34:19.143Z,31.16
2023-04-18T20:36:55.594Z,31.32
2023-04-18T20:39:31.797Z,31.23
2023-04-18T20:42:14.237Z,31.08
2023-04-18T20:44:50.531Z,31.41
2023-04-18T20:47:23.380Z,31.45
2023-04-18T20:50:01.579Z,31.36
2023-04-18T20:52:30.389Z,31.43
2023-04-18T20:55:03.289Z,31.54
2023-04-18T20:57:42.416Z,31.23
2023-04-18T21:00:23.776Z,31.25
2023-04-18T21:03:00.113Z,31.45
2023-04-18T21:05:37.263Z,31.49
2023-04-18T21:08:12.878Z,31.33
2023-04-18T21:10:49.716Z,31.58
2023-04-18T21:13:25.170Z,31.55
2023-04-18T21:16:03.633Z,31.15
2023-04-18T21:18:36.723Z,31.52
2023-04-18T21:21:12.573Z,31.52
2023-04-18T21:23:51.520Z,31.47
2023-04-18T21:26:28.280Z,31.69
2023-04-18T21:29:08.334Z,31.45
2023-04-18T21:31:38.443Z,31.53
2023-04-18T21:34:18.054Z,31.70
2023-04-18T21:36:48.916Z,31.58
2023-04-18T21:39:28.302Z,31.52
2023-04-18T21:42:03.967Z,31.47
2023-04-18T21:44:45.167Z,31.62
2023-04-18T21:47:20.622Z,31.61
2023-04-18T21:49:55.597Z,31.47
2023-04-18T21:52:30.307Z,31.79
2023-04-18T21:55:12.596Z,31.47
2023-04-18T21:57:48.721Z,31.26
2023-04-18T22:00:22.233Z,31.43
2023-04-18T22:02:55.664Z,31.50
2023-04-18T22:05:33.335Z,31.58
2023-04-18T22:08:10.179Z,31.59
2023-04-18T22:10:42.107Z,31.52
2023-04-18T22:13:19.011Z,31.66
2023-04-18T22:15:53.059Z,31.71
2023-04-18T22:18:26.248Z,31.79
2023-04-18T22:21:02.625Z,31.75
2023-04-18T22:23:44.551Z,31.57
2023-04-18T22:26:17.774Z,31.71
2023-04-18T22:28:50.902Z,31.60
2023-04-18T22:31:25.404Z,31.67
2023-04-18T22:33:58.163Z,31.74
2023-04-18T22:36:38.048Z,31.80
2023-04-18T22:39:13.991Z,31.67
2023-04-18T22:41:53.010Z,31.68
2023-04-18T22:44:26.680Z,31.51
2023-04-18T22:47:07.057Z,31.62
2023-04-18T22:49:37.332Z,31.83
2023-04-18T22:52:14.333Z,31.65
2023-04-18T22:54:54.174Z,31.75
2023-04-18T22:57:30.777Z,31.79
2023-04-18T23:00:05.061Z,31.65
2023-04-18T23:02:49.276Z,31.82
2023-04-18T23:05:26.928Z,31.84
2023-04-18T23:08:04.551Z,31.91
2023-04-18T23:10:46.104Z,32.02
2023-04-18T23:13:20.407Z,31.72
2023-04-18T23:15:58.532Z,31.99
2023-04-18T23:18:30.192Z,31.76
2023-04-18T23:21:02.789Z,31.79
2023-04-18T23:23:34.167Z,31.89
2023-04-18T23:26:17.614Z,31.84
2023-04-18T23:28:52.128Z,31.93
2023-04-18T23:31:27.706Z,31.97
2023-04-18T23:34:06.388Z,31.59
2023-04-18T23:36:43.101Z,31.88
2023-04-18T23:39:22.287Z,31.70
2023-04-18T23:41:55.657Z,31.92
2023-04-18T23:44:29.954Z,31.66
2023-04-18T23:47:03.989Z,31.77
2023-04-18T23:49:41.322Z,31.93
2023-04-18T23:52:17.311Z,31.54
2023-04-18T23:54:56.346Z,31.87
2023-04-18T23:57:35.208Z,31.84
